Dublin, Ireland

6:39 PM IST on September 04, 2015 (GMT +0100)
Paulie - Swords West | | Change Station
CLOSE
Current Station
Personal Weather Station
Location: Swords, DUBLIN
Elevation: 138 ft
Nearby Weather Stations

Elev 138 ft 53.46 °N, 6.25 °W | Updated 8 seconds ago

Mostly Cloudy
Mostly Cloudy
58.8 °F
Feels Like 58.8 °F
N
0.0
Wind Variable Wind from South
Gusts 0.0 mph

Today
High -- | Low -- °F
--% Chance of Precip.
Yesterday
High -- | Low -- °F
Precip. -- in
6:38 AM 8:08 PM
Waning Gibbous, 57% visible
Pressure 30.15 in
Visibility 6.2 miles
Clouds Scattered Clouds 2000 ft
Mostly Cloudy 2500 ft
Dew Point 56 °F
Humidity 92%
Rainfall 0.00 in
Snow Depth Not available.
UV 0.0 out of 12
Pollen Not available.
Air Quality Not available.
Flu Activity Not available.
METAR EIDW 041730Z 31012KT 280V340 9999 SCT020 BKN025 14/10 Q1021 NOSIG
Pressure 30.15 in
Visibility 6.2 miles
Clouds Scattered Clouds 2000 ft
Mostly Cloudy 2500 ft
Dew Point 56 °F
Humidity 92%
Rainfall 0.00 in
Snow Depth Not available.
UV 0.0 out of 12
Pollen Not available.
Air Quality Not available.
Flu Activity Not available.
METAR EIDW 041730Z 31012KT 280V340 9999 SCT020 BKN025 14/10 Q1021 NOSIG

10-Day Weather Forecast

×

Almanac

Astronomy

Sep. 04, 2015 Rise Set
Actual Time
Civil Twilight
Nautical Twilight
Astronomical Twilight
Moon
Length of Visible Light
Length of Day
Tomorrow will be .
, % of the Moon is Illuminated

Today's Extremes

Country Highs Country Lows

Community

WunderPhotos

Upload Photos

1,852,244 photos uploaded!

WunderBlogs® & News

Nearby

Air Quality

  Air Quality AQ Index Pollutant
Not available.

Snow Depth

Station Depth Elevation

Earthquake Activity

City Distance Mag. Time & Date
Minimum magnitude displayed is 2.5.

Coastal Water Temperatures

Place Temperature

Stations

Nearby Weather Stations

Station Location Temp. Windchill Dew Point Humidity Wind Precip. Elev Updated Type